Time,TemperatureF,DewpointF,PressureIn,WindDirection,WindDirectionDegrees,WindSpeedMPH,WindSpeedGustMPH,Humidity,HourlyPrecipIn,Conditions,Clouds,dailyrainin,SoftwareType,DateUTC
2013-01-13 00:05:00,42.2,40.6,30.12,South,171,0.0,0.0,94,0.00,,,0.00,Wunderground v.1.15,2013-01-13 05:05:00,
2013-01-13 00:10:00,42.2,40.9,30.13,South,171,0.0,0.0,95,0.00,,,0.00,Wunderground v.1.15,2013-01-13 05:10:00,
2013-01-13 00:15:00,42.1,40.8,30.13,South,171,0.0,0.0,95,0.00,,,0.00,Wunderground v.1.15,2013-01-13 05:15:00,
2013-01-13 00:20:00,42.0,40.7,30.13,South,171,0.0,0.0,95,0.00,,,0.00,Wunderground v.1.15,2013-01-13 05:20:00,
2013-01-13 00:25:00,42.0,40.7,30.13,West,263,1.0,1.0,95,0.00,,,0.00,Wunderground v.1.15,2013-01-13 05:25:00,
2013-01-13 00:30:00,42.1,40.8,30.13,West,263,1.0,1.0,95,0.00,,,0.00,Wunderground v.1.15,2013-01-13 05:30:00,
2013-01-13 00:40:00,42.1,40.8,30.13,West,263,0.0,0.0,95,0.00,,,0.00,Wunderground v.1.15,2013-01-13 05:40:00,
2013-01-13 00:50:00,42.0,40.7,30.13,West,263,0.0,0.0,95,0.00,,,0.00,Wunderground v.1.15,2013-01-13 05:50:00,
2013-01-13 00:55:00,41.9,40.6,30.13,West,263,1.0,1.0,95,0.00,,,0.00,Wunderground v.1.15,2013-01-13 05:55:00,
2013-01-13 01:00:00,41.9,40.6,30.13,West,264,1.0,3.0,95,0.00,,,0.00,Wunderground v.1.15,2013-01-13 06:00:00,
2013-01-13 01:05:00,42.0,40.7,30.13,West,264,2.0,3.0,95,0.00,,,0.00,Wunderground v.1.15,2013-01-13 06:05:00,
2013-01-13 01:10:00,42.0,40.7,30.12,West,264,1.0,1.0,95,0.00,,,0.00,Wunderground v.1.15,2013-01-13 06:10:00,
2013-01-13 01:20:00,42.0,40.7,30.12,West,264,0.0,0.0,95,0.00,,,0.00,Wunderground v.1.15,2013-01-13 06:20:00,
2013-01-13 01:30:00,41.9,40.6,30.12,West,264,0.0,0.0,95,0.00,,,0.00,Wunderground v.1.15,2013-01-13 06:30:00,
2013-01-13 01:35:00,41.9,40.6,30.12,West,264,0.0,0.0,95,0.00,,,0.00,Wunderground v.1.15,2013-01-13 06:35:00,
2013-01-13 01:40:00,41.8,40.5,30.12,SSE,149,1.0,1.0,95,0.00,,,0.00,Wunderground v.1.15,2013-01-13 06:40:00,
2013-01-13 01:45:00,41.8,40.5,30.12,SSE,149,1.0,1.0,95,0.00,,,0.00,Wunderground v.1.15,2013-01-13 06:45:00,
2013-01-13 01:50:00,41.8,40.5,30.11,SSE,149,0.0,2.0,95,0.00,,,0.00,Wunderground v.1.15,2013-01-13 06:50:00,
2013-01-13 01:55:00,41.8,40.5,30.11,SSE,149,1.0,2.0,95,0.00,,,0.00,Wunderground v.1.15,2013-01-13 06:55:00,
2013-01-13 02:00:00,41.8,40.5,30.12,SSE,149,1.0,2.0,95,0.00,,,0.00,Wunderground v.1.15,2013-01-13 07:00:00,
2013-01-13 02:05:00,41.9,40.6,30.12,SSE,149,0.0,2.0,95,0.00,,,0.00,Wunderground v.1.15,2013-01-13 07:05:00,
2013-01-13 02:15:00,41.9,40.8,30.12,SSE,149,0.0,1.0,96,0.00,,,0.00,Wunderground v.1.15,2013-01-13 07:15:00,
2013-01-13 02:20:00,41.9,40.8,30.12,SSE,149,0.0,0.0,96,0.00,,,0.00,Wunderground v.1.15,2013-01-13 07:20:00,
2013-01-13 02:30:00,42.0,40.9,30.13,SSE,149,0.0,0.0,96,0.00,,,0.00,Wunderground v.1.15,2013-01-13 07:30:00,
2013-01-13 02:35:00,42.0,40.9,30.13,SSE,149,0.0,0.0,96,0.00,,,0.00,Wunderground v.1.15,2013-01-13 07:35:00,
2013-01-13 02:40:00,42.0,40.9,30.12,SSE,149,0.0,0.0,96,0.00,,,0.00,Wunderground v.1.15,2013-01-13 07:40:00,
2013-01-13 02:45:00,42.0,40.9,30.12,SSE,149,0.0,0.0,96,0.00,,,0.00,Wunderground v.1.15,2013-01-13 07:45:00,
2013-01-13 02:55:00,42.1,41.0,30.12,SSE,149,0.0,0.0,96,0.00,,,0.00,Wunderground v.1.15,2013-01-13 07:55:00,
2013-01-13 03:05:00,42.4,41.3,30.11,SSW,198,2.0,4.0,96,0.00,,,0.00,Wunderground v.1.15,2013-01-13 08:05:00,
2013-01-13 03:10:00,42.5,41.4,30.12,SSW,198,2.0,2.0,96,0.00,,,0.00,Wunderground v.1.15,2013-01-13 08:10:00,
2013-01-13 03:15:00,42.6,41.5,30.11,SSW,198,1.0,2.0,96,0.00,,,0.00,Wunderground v.1.15,2013-01-13 08:15:00,
2013-01-13 03:20:00,42.6,41.5,30.10,SSW,198,1.0,1.0,96,0.00,,,0.00,Wunderground v.1.15,2013-01-13 08:20:00,
2013-01-13 03:25:00,42.7,41.6,30.10,South,185,1.0,3.0,96,0.00,,,0.00,Wunderground v.1.15,2013-01-13 08:25:00,
2013-01-13 03:35:00,42.7,41.6,30.11,South,181,2.0,2.0,96,0.00,,,0.00,Wunderground v.1.15,2013-01-13 08:35:00,
2013-01-13 03:45:00,42.7,41.6,30.10,South,181,1.0,1.0,96,0.00,,,0.00,Wunderground v.1.15,2013-01-13 08:45:00,
2013-01-13 03:50:00,42.7,41.6,30.09,South,177,1.0,1.0,96,0.00,,,0.00,Wunderground v.1.15,2013-01-13 08:50:00,
2013-01-13 03:55:00,42.7,41.6,30.09,SE,134,2.0,2.0,96,0.00,,,0.00,Wunderground v.1.15,2013-01-13 08:55:00,
2013-01-13 04:00:00,42.7,41.6,30.10,South,177,2.0,2.0,96,0.00,,,0.00,Wunderground v.1.15,2013-01-13 09:00:00,
2013-01-13 04:05:00,42.6,41.5,30.10,South,184,2.0,2.0,96,0.00,,,0.00,Wunderground v.1.15,2013-01-13 09:05:00,
2013-01-13 04:10:00,42.5,41.4,30.09,SSE,167,2.0,2.0,96,0.00,,,0.00,Wunderground v.1.15,2013-01-13 09:10:00,
2013-01-13 04:15:00,42.5,41.4,30.09,SSE,167,1.0,2.0,96,0.00,,,0.00,Wunderground v.1.15,2013-01-13 09:15:00,
2013-01-13 04:20:00,42.5,41.4,30.09,SSE,167,1.0,1.0,96,0.00,,,0.00,Wunderground v.1.15,2013-01-13 09:20:00,
2013-01-13 04:30:00,42.4,41.3,30.09,SE,144,1.0,2.0,96,0.00,,,0.00,Wunderground v.1.15,2013-01-13 09:30:00,
2013-01-13 04:35:00,42.4,41.3,30.09,SE,144,2.0,2.0,96,0.00,,,0.00,Wunderground v.1.15,2013-01-13 09:35:00,
2013-01-13 04:40:00,42.4,41.3,30.10,SE,144,2.0,2.0,96,0.00,,,0.00,Wunderground v.1.15,2013-01-13 09:40:00,
2013-01-13 04:50:00,42.4,41.3,30.09,SE,140,2.0,2.0,96,0.00,,,0.00,Wunderground v.1.15,2013-01-13 09:50:00,
2013-01-13 04:55:00,42.3,41.2,30.09,SE,140,2.0,2.0,96,0.00,,,0.00,Wunderground v.1.15,2013-01-13 09:55:00,
2013-01-13 05:00:00,42.3,41.2,30.09,SSE,166,2.0,3.0,96,0.00,,,0.00,Wunderground v.1.15,2013-01-13 10:00:00,
2013-01-13 05:10:00,42.2,41.1,30.09,SSW,193,2.0,3.0,96,0.00,,,0.00,Wunderground v.1.15,2013-01-13 10:10:00,
2013-01-13 05:15:00,42.1,41.0,30.09,SSE,168,2.0,3.0,96,0.00,,,0.00,Wunderground v.1.15,2013-01-13 10:15:00,
2013-01-13 05:20:00,42.1,41.0,30.09,South,169,2.0,2.0,96,0.00,,,0.00,Wunderground v.1.15,2013-01-13 10:20:00,
2013-01-13 05:25:00,42.0,40.9,30.09,SSE,159,2.0,3.0,96,0.00,,,0.00,Wunderground v.1.15,2013-01-13 10:25:00,
2013-01-13 05:30:00,42.1,41.0,30.08,SSE,165,2.0,2.0,96,0.00,,,0.00,Wunderground v.1.15,2013-01-13 10:30:00,
2013-01-13 05:35:00,42.1,41.0,30.09,South,170,2.0,2.0,96,0.00,,,0.00,Wunderground v.1.15,2013-01-13 10:35:00,
2013-01-13 05:45:00,42.2,41.1,30.10,SSE,164,3.0,4.0,96,0.00,,,0.00,Wunderground v.1.15,2013-01-13 10:45:00,
2013-01-13 05:50:00,42.3,41.2,30.09,South,178,4.0,4.0,96,0.00,,,0.00,Wunderground v.1.15,2013-01-13 10:50:00,
2013-01-13 05:55:00,42.3,41.2,30.09,SE,125,4.0,4.0,96,0.00,,,0.00,Wunderground v.1.15,2013-01-13 10:55:00,
2013-01-13 06:00:00,42.4,41.3,30.09,SSE,148,3.0,3.0,96,0.00,,,0.00,Wunderground v.1.15,2013-01-13 11:00:00,
2013-01-13 06:05:00,42.4,41.3,30.09,SSE,163,3.0,3.0,96,0.00,,,0.00,Wunderground v.1.15,2013-01-13 11:05:00,
2013-01-13 06:10:00,42.5,41.4,30.09,South,184,3.0,4.0,96,0.00,,,0.00,Wunderground v.1.15,2013-01-13 11:10:00,
2013-01-13 06:15:00,42.6,41.5,30.09,South,169,3.0,4.0,96,0.00,,,0.00,Wunderground v.1.15,2013-01-13 11:15:00,
2013-01-13 06:20:00,42.6,41.5,30.09,South,172,3.0,3.0,96,0.00,,,0.00,Wunderground v.1.15,2013-01-13 11:20:00,
2013-01-13 06:30:00,42.7,41.6,30.09,SSE,158,2.0,4.0,96,0.00,,,0.00,Wunderground v.1.15,2013-01-13 11:30:00,
2013-01-13 06:35:00,42.7,41.6,30.09,SE,129,2.0,4.0,96,0.00,,,0.00,Wunderground v.1.15,2013-01-13 11:35:00,
2013-01-13 06:40:00,42.7,41.6,30.09,South,180,3.0,3.0,96,0.00,,,0.00,Wunderground v.1.15,2013-01-13 11:40:00,
2013-01-13 06:45:00,42.7,41.6,30.09,South,169,3.0,3.0,96,0.00,,,0.00,Wunderground v.1.15,2013-01-13 11:45:00,
2013-01-13 06:50:00,42.7,41.6,30.09,SSE,165,2.0,3.0,96,0.00,,,0.00,Wunderground v.1.15,2013-01-13 11:50:00,
2013-01-13 06:55:00,42.7,41.6,30.09,SSE,165,2.0,4.0,96,0.00,,,0.00,Wunderground v.1.15,2013-01-13 11:55:00,
2013-01-13 07:00:00,42.8,42.0,30.09,South,179,2.0,3.0,97,0.00,,,0.00,Wunderground v.1.15,2013-01-13 12:00:00,
2013-01-13 07:05:00,42.8,42.0,30.09,South,176,2.0,3.0,97,0.00,,,0.00,Wunderground v.1.15,2013-01-13 12:05:00,
2013-01-13 07:10:00,42.8,42.0,30.10,SSE,167,2.0,3.0,97,0.00,,,0.00,Wunderground v.1.15,2013-01-13 12:10:00,
2013-01-13 07:20:00,42.9,42.1,30.09,SSE,165,2.0,2.0,97,0.00,,,0.01,Wunderground v.1.15,2013-01-13 12:20:00,
2013-01-13 07:25:00,42.9,42.1,30.10,South,187,3.0,3.0,97,0.00,,,0.01,Wunderground v.1.15,2013-01-13 12:25:00,
2013-01-13 07:30:00,42.9,42.1,30.10,South,177,3.0,3.0,97,0.00,,,0.01,Wunderground v.1.15,2013-01-13 12:30:00,
2013-01-13 07:40:00,42.9,42.1,30.10,South,173,2.0,5.0,97,0.00,,,0.01,Wunderground v.1.15,2013-01-13 12:40:00,
2013-01-13 07:45:00,42.9,42.1,30.10,SSW,193,3.0,5.0,97,0.00,,,0.01,Wunderground v.1.15,2013-01-13 12:45:00,
2013-01-13 07:50:00,42.9,42.1,30.10,South,180,3.0,3.0,97,0.00,,,0.01,Wunderground v.1.15,2013-01-13 12:50:00,
2013-01-13 07:55:00,43.0,42.2,30.10,South,178,2.0,4.0,97,0.00,,,0.01,Wunderground v.1.15,2013-01-13 12:55:00,
2013-01-13 08:00:00,43.0,42.2,30.10,South,171,2.0,3.0,97,0.00,,,0.01,Wunderground v.1.15,2013-01-13 13:00:00,
2013-01-13 08:05:00,43.1,42.3,30.10,South,189,3.0,3.0,97,0.00,,,0.01,Wunderground v.1.15,2013-01-13 13:05:00,
2013-01-13 08:15:00,43.1,42.3,30.10,SSE,163,3.0,5.0,97,0.00,,,0.01,Wunderground v.1.15,2013-01-13 13:15:00,
2013-01-13 08:20:00,43.2,42.4,30.10,SSE,155,3.0,3.0,97,0.00,,,0.01,Wunderground v.1.15,2013-01-13 13:20:00,
2013-01-13 08:30:00,43.4,42.6,30.10,South,171,3.0,3.0,97,0.00,,,0.01,Wunderground v.1.15,2013-01-13 13:30:00,
2013-01-13 08:35:00,43.4,42.6,30.10,SSW,207,4.0,7.0,97,0.00,,,0.01,Wunderground v.1.15,2013-01-13 13:35:00,
2013-01-13 08:40:00,43.4,42.6,30.11,SSW,193,4.0,4.0,97,0.00,,,0.01,Wunderground v.1.15,2013-01-13 13:40:00,
2013-01-13 08:50:00,43.5,42.7,30.11,SSE,153,4.0,6.0,97,0.00,,,0.01,Wunderground v.1.15,2013-01-13 13:50:00,
2013-01-13 08:55:00,43.5,42.7,30.11,South,177,5.0,6.0,97,0.00,,,0.01,Wunderground v.1.15,2013-01-13 13:55:00,
2013-01-13 09:00:00,43.6,42.8,30.11,South,173,5.0,5.0,97,0.00,,,0.01,Wunderground v.1.15,2013-01-13 14:00:00,
2013-01-13 09:10:00,43.7,42.9,30.11,SSE,163,4.0,6.0,97,0.00,,,0.01,Wunderground v.1.15,2013-01-13 14:10:00,
2013-01-13 09:15:00,43.7,42.9,30.11,South,181,5.0,6.0,97,0.00,,,0.01,Wunderground v.1.15,2013-01-13 14:15:00,
2013-01-13 09:20:00,43.7,42.9,30.12,SSW,193,5.0,7.0,97,0.00,,,0.01,Wunderground v.1.15,2013-01-13 14:20:00,
2013-01-13 09:25:00,43.8,43.0,30.11,South,177,4.0,7.0,97,0.00,,,0.01,Wunderground v.1.15,2013-01-13 14:25:00,
2013-01-13 09:30:00,43.8,43.0,30.12,South,180,4.0,4.0,97,0.00,,,0.01,Wunderground v.1.15,2013-01-13 14:30:00,
2013-01-13 09:35:00,43.8,43.0,30.12,SSE,158,4.0,6.0,97,0.00,,,0.01,Wunderground v.1.15,2013-01-13 14:35:00,
2013-01-13 09:40:00,43.7,42.9,30.11,South,177,5.0,5.0,97,0.00,,,0.01,Wunderground v.1.15,2013-01-13 14:40:00,
2013-01-13 09:45:00,43.7,42.9,30.11,SSW,203,4.0,6.0,97,0.00,,,0.01,Wunderground v.1.15,2013-01-13 14:45:00,
2013-01-13 09:55:00,43.8,43.0,30.11,South,170,4.0,4.0,97,0.00,,,0.01,Wunderground v.1.15,2013-01-13 14:55:00,
2013-01-13 10:00:00,43.9,43.1,30.11,South,175,4.0,4.0,97,0.00,,,0.01,Wunderground v.1.15,2013-01-13 15:00:00,
2013-01-13 10:05:00,44.0,43.2,30.11,South,174,4.0,4.0,97,0.00,,,0.01,Wunderground v.1.15,2013-01-13 15:05:00,
2013-01-13 10:10:00,44.0,43.2,30.11,SSE,150,4.0,4.0,97,0.00,,,0.01,Wunderground v.1.15,2013-01-13 15:10:00,
2013-01-13 10:15:00,44.0,43.2,30.11,SSW,193,4.0,4.0,97,0.00,,,0.01,Wunderground v.1.15,2013-01-13 15:15:00,
2013-01-13 10:20:00,44.0,43.2,30.11,South,186,5.0,5.0,97,0.00,,,0.01,Wunderground v.1.15,2013-01-13 15:20:00,
2013-01-13 10:25:00,44.0,43.2,30.12,SE,132,5.0,5.0,97,0.00,,,0.01,Wunderground v.1.15,2013-01-13 15:25:00,
2013-01-13 10:30:00,44.0,43.2,30.12,South,186,6.0,6.0,97,0.00,,,0.01,Wunderground v.1.15,2013-01-13 15:30:00,
2013-01-13 10:35:00,44.1,43.3,30.13,South,175,4.0,6.0,97,0.00,,,0.01,Wunderground v.1.15,2013-01-13 15:35:00,
2013-01-13 10:45:00,44.3,43.5,30.13,SSW,213,5.0,5.0,97,0.00,,,0.01,Wunderground v.1.15,2013-01-13 15:45:00,
2013-01-13 10:50:00,44.3,43.5,30.13,WSW,239,4.0,4.0,97,0.00,,,0.01,Wunderground v.1.15,2013-01-13 15:50:00,
2013-01-13 10:55:00,44.3,43.5,30.13,South,184,3.0,4.0,97,0.00,,,0.01,Wunderground v.1.15,2013-01-13 15:55:00,
2013-01-13 11:00:00,44.3,43.5,30.13,South,174,2.0,4.0,97,0.00,,,0.01,Wunderground v.1.15,2013-01-13 16:00:00,
2013-01-13 11:05:00,44.4,43.6,30.14,South,176,2.0,4.0,97,0.00,,,0.01,Wunderground v.1.15,2013-01-13 16:05:00,
2013-01-13 11:10:00,44.5,43.7,30.13,SSE,151,3.0,5.0,97,0.00,,,0.01,Wunderground v.1.15,2013-01-13 16:10:00,
2013-01-13 11:15:00,44.5,43.7,30.12,SSW,198,2.0,5.0,97,0.00,,,0.01,Wunderground v.1.15,2013-01-13 16:15:00,
2013-01-13 11:20:00,44.5,43.7,30.12,South,182,2.0,5.0,97,0.00,,,0.01,Wunderground v.1.15,2013-01-13 16:20:00,
2013-01-13 11:30:00,44.6,43.8,30.11,South,177,2.0,3.0,97,0.00,,,0.01,Wunderground v.1.15,2013-01-13 16:30:00,
2013-01-13 11:35:00,44.6,43.8,30.11,South,181,3.0,4.0,97,0.00,,,0.01,Wunderground v.1.15,2013-01-13 16:35:00,
2013-01-13 11:45:00,44.5,43.7,30.10,South,187,3.0,3.0,97,0.00,,,0.01,Wunderground v.1.15,2013-01-13 16:45:00,
2013-01-13 11:50:00,44.7,43.9,30.09,South,186,3.0,5.0,97,0.00,,,0.01,Wunderground v.1.15,2013-01-13 16:50:00,
2013-01-13 11:55:00,44.9,44.1,30.09,South,172,2.0,5.0,97,0.00,,,0.01,Wunderground v.1.15,2013-01-13 16:55:00,
2013-01-13 12:00:00,44.9,44.1,30.08,SE,141,3.0,4.0,97,0.00,,,0.01,Wunderground v.1.15,2013-01-13 17:00:00,
2013-01-13 12:10:00,44.9,44.1,30.07,SE,135,5.0,5.0,97,0.00,,,0.01,Wunderground v.1.15,2013-01-13 17:10:00,
2013-01-13 12:20:00,45.1,44.3,30.06,SSW,193,5.0,5.0,97,0.00,,,0.01,Wunderground v.1.15,2013-01-13 17:20:00,
2013-01-13 12:25:00,45.2,44.4,30.06,South,174,5.0,10.0,97,0.00,,,0.01,Wunderground v.1.15,2013-01-13 17:25:00,
2013-01-13 12:30:00,45.2,44.4,30.06,South,178,6.0,7.0,97,0.00,,,0.01,Wunderground v.1.15,2013-01-13 17:30:00,
2013-01-13 12:35:00,45.2,44.4,30.06,SW,232,5.0,7.0,97,0.00,,,0.01,Wunderground v.1.15,2013-01-13 17:35:00,
2013-01-13 12:40:00,45.1,44.3,30.05,SSW,198,4.0,4.0,97,0.00,,,0.01,Wunderground v.1.15,2013-01-13 17:40:00,
2013-01-13 12:50:00,45.3,44.5,30.05,SSE,164,5.0,7.0,97,0.00,,,0.01,Wunderground v.1.15,2013-01-13 17:50:00,
2013-01-13 13:00:00,45.5,44.7,30.05,South,186,5.0,5.0,97,0.00,,,0.01,Wunderground v.1.15,2013-01-13 18:00:00,
2013-01-13 13:05:00,45.5,44.7,30.04,SSE,163,5.0,5.0,97,0.00,,,0.01,Wunderground v.1.15,2013-01-13 18:05:00,
2013-01-13 13:10:00,45.5,44.7,30.05,South,172,5.0,5.0,97,0.00,,,0.01,Wunderground v.1.15,2013-01-13 18:10:00,
2013-01-13 13:15:00,45.5,44.7,30.05,SSW,209,5.0,5.0,97,0.00,,,0.01,Wunderground v.1.15,2013-01-13 18:15:00,
2013-01-13 13:25:00,45.6,44.8,30.05,South,171,4.0,6.0,97,0.00,,,0.01,Wunderground v.1.15,2013-01-13 18:25:00,
2013-01-13 13:30:00,45.5,44.7,30.05,SSW,203,5.0,6.0,97,0.00,,,0.01,Wunderground v.1.15,2013-01-13 18:30:00,
2013-01-13 13:40:00,45.7,44.9,30.04,South,169,5.0,5.0,97,0.00,,,0.01,Wunderground v.1.15,2013-01-13 18:40:00,
2013-01-13 13:45:00,45.7,44.9,30.04,South,174,4.0,7.0,97,0.00,,,0.01,Wunderground v.1.15,2013-01-13 18:45:00,
2013-01-13 13:50:00,45.6,44.8,30.04,South,180,4.0,4.0,97,0.00,,,0.01,Wunderground v.1.15,2013-01-13 18:50:00,
2013-01-13 13:55:00,45.6,44.8,30.04,SSW,198,5.0,5.0,97,0.00,,,0.01,Wunderground v.1.15,2013-01-13 18:55:00,
2013-01-13 14:00:00,45.5,44.7,30.04,South,182,5.0,5.0,97,0.00,,,0.01,Wunderground v.1.15,2013-01-13 19:00:00,
2013-01-13 14:05:00,45.5,44.7,30.04,South,186,5.0,5.0,97,0.00,,,0.01,Wunderground v.1.15,2013-01-13 19:05:00,
2013-01-13 14:10:00,45.5,44.7,30.04,SW,214,5.0,5.0,97,0.00,,,0.01,Wunderground v.1.15,2013-01-13 19:10:00,
2013-01-13 14:20:00,45.6,44.8,30.04,South,177,4.0,4.0,97,0.00,,,0.01,Wunderground v.1.15,2013-01-13 19:20:00,
2013-01-13 14:25:00,45.8,45.0,30.04,SSE,159,4.0,7.0,97,0.00,,,0.01,Wunderground v.1.15,2013-01-13 19:25:00,
2013-01-13 14:30:00,46.0,45.2,30.04,South,169,4.0,5.0,97,0.00,,,0.01,Wunderground v.1.15,2013-01-13 19:30:00,
2013-01-13 14:35:00,46.2,45.4,30.04,South,169,4.0,5.0,97,0.00,,,0.01,Wunderground v.1.15,2013-01-13 19:35:00,
2013-01-13 14:40:00,46.3,45.5,30.04,SSE,161,4.0,7.0,97,0.00,,,0.01,Wunderground v.1.15,2013-01-13 19:40:00,
2013-01-13 14:45:00,46.2,45.4,30.04,South,179,4.0,7.0,97,0.00,,,0.01,Wunderground v.1.15,2013-01-13 19:45:00,
2013-01-13 14:50:00,46.0,45.2,30.04,South,171,4.0,4.0,97,0.00,,,0.01,Wunderground v.1.15,2013-01-13 19:50:00,
2013-01-13 14:55:00,45.9,45.1,30.05,South,182,3.0,4.0,97,0.00,,,0.01,Wunderground v.1.15,2013-01-13 19:55:00,
2013-01-13 15:05:00,45.9,45.1,30.06,SSW,210,1.0,2.0,97,0.00,,,0.01,Wunderground v.1.15,2013-01-13 20:05:00,
2013-01-13 15:10:00,46.1,45.3,30.05,South,182,2.0,3.0,97,0.00,,,0.01,Wunderground v.1.15,2013-01-13 20:10:00,
2013-01-13 15:15:00,46.2,45.4,30.05,South,186,3.0,3.0,97,0.00,,,0.01,Wunderground v.1.15,2013-01-13 20:15:00,
2013-01-13 15:20:00,46.3,45.5,30.05,South,180,3.0,3.0,97,0.00,,,0.01,Wunderground v.1.15,2013-01-13 20:20:00,
2013-01-13 15:25:00,46.2,45.4,30.04,South,184,4.0,4.0,97,0.00,,,0.01,Wunderground v.1.15,2013-01-13 20:25:00,
2013-01-13 15:30:00,46.1,45.3,30.04,SSW,203,3.0,3.0,97,0.00,,,0.01,Wunderground v.1.15,2013-01-13 20:30:00,
2013-01-13 15:35:00,46.0,45.2,30.04,SSW,208,3.0,3.0,97,0.00,,,0.01,Wunderground v.1.15,2013-01-13 20:35:00,
2013-01-13 15:40:00,45.8,45.0,30.04,SSE,159,3.0,3.0,97,0.00,,,0.01,Wunderground v.1.15,2013-01-13 20:40:00,
2013-01-13 15:45:00,45.8,45.0,30.04,South,174,3.0,3.0,97,0.00,,,0.01,Wunderground v.1.15,2013-01-13 20:45:00,
2013-01-13 15:50:00,45.7,44.9,30.05,SSE,167,3.0,3.0,97,0.00,,,0.01,Wunderground v.1.15,2013-01-13 20:50:00,
2013-01-13 16:00:00,45.7,44.9,30.04,SSE,167,2.0,4.0,97,0.00,,,0.01,Wunderground v.1.15,2013-01-13 21:00:00,
2013-01-13 16:05:00,45.8,45.0,30.04,SSW,193,3.0,4.0,97,0.00,,,0.01,Wunderground v.1.15,2013-01-13 21:05:00,
2013-01-13 16:10:00,45.8,45.0,30.04,SSE,168,3.0,4.0,97,0.00,,,0.01,Wunderground v.1.15,2013-01-13 21:10:00,
2013-01-13 16:15:00,45.9,45.1,30.04,South,184,3.0,4.0,97,0.00,,,0.01,Wunderground v.1.15,2013-01-13 21:15:00,
2013-01-13 16:20:00,45.9,45.1,30.04,SSW,198,4.0,4.0,97,0.00,,,0.01,Wunderground v.1.15,2013-01-13 21:20:00,
2013-01-13 16:25:00,46.0,45.2,30.03,SSW,193,4.0,5.0,97,0.00,,,0.01,Wunderground v.1.15,2013-01-13 21:25:00,
2013-01-13 16:30:00,46.0,45.2,30.03,SSW,193,4.0,4.0,97,0.00,,,0.01,Wunderground v.1.15,2013-01-13 21:30:00,
2013-01-13 16:40:00,46.1,45.3,30.03,South,189,4.0,4.0,97,0.00,,,0.01,Wunderground v.1.15,2013-01-13 21:40:00,
2013-01-13 16:45:00,46.2,45.4,30.03,SSE,167,4.0,6.0,97,0.00,,,0.01,Wunderground v.1.15,2013-01-13 21:45:00,
2013-01-13 16:50:00,46.1,45.3,30.03,SSW,198,4.0,4.0,97,0.00,,,0.01,Wunderground v.1.15,2013-01-13 21:50:00,
2013-01-13 16:55:00,46.1,45.3,30.03,South,178,4.0,4.0,97,0.00,,,0.01,Wunderground v.1.15,2013-01-13 21:55:00,
2013-01-13 17:00:00,46.1,45.3,30.03,SSW,193,4.0,4.0,97,0.00,,,0.01,Wunderground v.1.15,2013-01-13 22:00:00,
2013-01-13 17:05:00,46.1,45.3,30.03,South,182,4.0,5.0,97,0.00,,,0.01,Wunderground v.1.15,2013-01-13 22:05:00,
2013-01-13 17:10:00,46.3,45.5,30.03,South,180,4.0,4.0,97,0.00,,,0.01,Wunderground v.1.15,2013-01-13 22:10:00,
2013-01-13 17:20:00,46.6,45.8,30.03,South,187,3.0,7.0,97,0.00,,,0.01,Wunderground v.1.15,2013-01-13 22:20:00,
2013-01-13 17:25:00,46.8,46.3,30.03,South,181,3.0,7.0,98,0.00,,,0.01,Wunderground v.1.15,2013-01-13 22:25:00,
2013-01-13 17:30:00,46.9,46.4,30.03,South,188,4.0,5.0,98,0.00,,,0.01,Wunderground v.1.15,2013-01-13 22:30:00,
2013-01-13 17:35:00,47.0,46.5,30.03,SSW,207,4.0,7.0,98,0.00,,,0.01,Wunderground v.1.15,2013-01-13 22:35:00,
2013-01-13 17:40:00,47.0,46.5,30.03,SSW,207,4.0,8.0,98,0.00,,,0.01,Wunderground v.1.15,2013-01-13 22:40:00,
2013-01-13 17:45:00,47.0,46.2,30.03,South,185,4.0,8.0,97,0.00,,,0.01,Wunderground v.1.15,2013-01-13 22:45:00,
2013-01-13 17:55:00,47.1,46.3,30.03,South,181,4.0,5.0,97,0.00,,,0.01,Wunderground v.1.15,2013-01-13 22:55:00,
2013-01-13 18:00:00,47.2,46.4,30.04,SSE,165,4.0,5.0,97,0.00,,,0.01,Wunderground v.1.15,2013-01-13 23:00:00,
2013-01-13 18:05:00,47.2,46.4,30.03,South,185,4.0,6.0,97,0.00,,,0.01,Wunderground v.1.15,2013-01-13 23:05:00,
2013-01-13 18:10:00,47.3,46.5,30.04,South,184,4.0,4.0,97,0.00,,,0.01,Wunderground v.1.15,2013-01-13 23:10:00,
2013-01-13 18:15:00,47.4,46.9,30.04,South,183,3.0,4.0,98,0.00,,,0.01,Wunderground v.1.15,2013-01-13 23:15:00,
2013-01-13 18:20:00,47.4,46.9,30.03,SSW,193,3.0,4.0,98,0.00,,,0.01,Wunderground v.1.15,2013-01-13 23:20:00,
2013-01-13 18:30:00,47.5,47.0,30.04,South,174,4.0,4.0,98,0.00,,,0.01,Wunderground v.1.15,2013-01-13 23:30:00,
2013-01-13 18:35:00,47.5,47.0,30.03,SSW,193,3.0,4.0,98,0.00,,,0.01,Wunderground v.1.15,2013-01-13 23:35:00,
2013-01-13 18:40:00,47.4,46.9,30.03,South,183,4.0,4.0,98,0.00,,,0.01,Wunderground v.1.15,2013-01-13 23:40:00,
2013-01-13 18:45:00,47.4,46.9,30.03,SSE,159,4.0,4.0,98,0.00,,,0.01,Wunderground v.1.15,2013-01-13 23:45:00,
2013-01-13 18:50:00,47.4,46.9,30.03,South,176,3.0,3.0,98,0.00,,,0.01,Wunderground v.1.15,2013-01-13 23:50:00,
2013-01-13 18:55:00,47.3,46.5,30.02,South,176,2.0,3.0,97,0.00,,,0.01,Wunderground v.1.15,2013-01-13 23:55:00,
2013-01-13 19:00:00,47.2,46.4,30.03,South,188,2.0,3.0,97,0.00,,,0.01,Wunderground v.1.15,2013-01-14 00:00:00,
2013-01-13 19:05:00,47.1,46.3,30.03,South,185,2.0,4.0,97,0.00,,,0.01,Wunderground v.1.15,2013-01-14 00:05:00,
2013-01-13 19:10:00,46.9,46.1,30.02,SSE,165,2.0,2.0,97,0.00,,,0.01,Wunderground v.1.15,2013-01-14 00:10:00,
2013-01-13 19:20:00,46.8,46.3,30.02,South,184,2.0,3.0,98,0.00,,,0.02,Wunderground v.1.15,2013-01-14 00:20:00,
2013-01-13 19:25:00,46.8,46.3,30.02,South,176,2.0,3.0,98,0.00,,,0.02,Wunderground v.1.15,2013-01-14 00:25:00,
2013-01-13 19:30:00,46.7,46.2,30.01,South,174,2.0,2.0,98,0.00,,,0.02,Wunderground v.1.15,2013-01-14 00:30:00,
2013-01-13 19:35:00,46.8,46.3,30.02,South,174,2.0,3.0,98,0.00,,,0.02,Wunderground v.1.15,2013-01-14 00:35:00,
2013-01-13 19:40:00,46.8,46.3,30.02,South,186,2.0,2.0,98,0.00,,,0.02,Wunderground v.1.15,2013-01-14 00:40:00,
2013-01-13 19:45:00,46.8,46.3,30.01,South,185,2.0,4.0,98,0.00,,,0.02,Wunderground v.1.15,2013-01-14 00:45:00,
2013-01-13 19:50:00,46.9,46.4,30.01,South,184,3.0,3.0,98,0.00,,,0.02,Wunderground v.1.15,2013-01-14 00:50:00,
2013-01-13 19:55:00,46.9,46.4,30.01,SSE,164,3.0,4.0,98,0.00,,,0.02,Wunderground v.1.15,2013-01-14 00:55:00,
2013-01-13 20:05:00,46.9,46.4,30.01,SSE,167,3.0,5.0,98,0.00,,,0.02,Wunderground v.1.15,2013-01-14 01:05:00,
2013-01-13 20:10:00,46.8,46.3,30.00,South,169,4.0,4.0,98,0.00,,,0.02,Wunderground v.1.15,2013-01-14 01:10:00,
2013-01-13 20:20:00,46.7,46.2,30.00,SSW,193,3.0,4.0,98,0.00,,,0.02,Wunderground v.1.15,2013-01-14 01:20:00,
2013-01-13 20:25:00,46.7,45.9,30.00,South,180,3.0,4.0,97,0.00,,,0.02,Wunderground v.1.15,2013-01-14 01:25:00,
2013-01-13 20:30:00,46.7,45.9,30.00,SSW,193,3.0,4.0,97,0.00,,,0.02,Wunderground v.1.15,2013-01-14 01:30:00,
2013-01-13 20:40:00,46.8,46.0,30.00,South,180,3.0,5.0,97,0.00,,,0.02,Wunderground v.1.15,2013-01-14 01:40:00,
2013-01-13 20:45:00,46.9,46.4,30.00,South,184,3.0,5.0,98,0.00,,,0.02,Wunderground v.1.15,2013-01-14 01:45:00,
2013-01-13 20:55:00,46.9,46.4,29.99,South,178,4.0,5.0,98,0.00,,,0.02,Wunderground v.1.15,2013-01-14 01:55:00,
2013-01-13 21:00:00,46.9,46.4,29.99,SSW,193,4.0,4.0,98,0.00,,,0.02,Wunderground v.1.15,2013-01-14 02:00:00,
2013-01-13 21:05:00,47.0,46.5,29.99,South,183,4.0,4.0,98,0.00,,,0.02,Wunderground v.1.15,2013-01-14 02:05:00,
2013-01-13 21:10:00,47.1,46.6,29.99,SSW,211,4.0,4.0,98,0.00,,,0.00,Wunderground v.1.15,2013-01-14 02:10:00,
2013-01-13 21:15:00,47.2,46.7,29.99,South,174,3.0,4.0,98,0.00,,,0.00,Wunderground v.1.15,2013-01-14 02:15:00,
2013-01-13 21:25:00,47.6,47.1,29.99,SSE,166,3.0,3.0,98,0.00,,,0.00,Wunderground v.1.15,2013-01-14 02:25:00,
2013-01-13 21:35:00,47.9,47.4,29.99,SSW,198,3.0,4.0,98,0.00,,,0.00,Wunderground v.1.15,2013-01-14 02:35:00,
2013-01-13 21:40:00,47.9,47.4,29.99,SSW,212,3.0,4.0,98,0.00,,,0.00,Wunderground v.1.15,2013-01-14 02:40:00,
2013-01-13 21:45:00,47.9,47.4,29.98,South,171,3.0,4.0,98,0.00,,,0.00,Wunderground v.1.15,2013-01-14 02:45:00,
2013-01-13 21:50:00,47.9,47.4,29.99,SSW,193,3.0,3.0,98,0.00,,,0.00,Wunderground v.1.15,2013-01-14 02:50:00,
2013-01-13 21:55:00,47.9,47.4,29.98,South,170,3.0,3.0,98,0.00,,,0.00,Wunderground v.1.15,2013-01-14 02:55:00,
2013-01-13 22:05:00,47.8,47.3,29.98,South,188,3.0,5.0,98,0.00,,,0.00,Wunderground v.1.15,2013-01-14 03:05:00,
2013-01-13 22:10:00,47.7,47.2,29.98,SSW,193,3.0,3.0,98,0.00,,,0.00,Wunderground v.1.15,2013-01-14 03:10:00,
2013-01-13 22:20:00,47.6,47.1,29.98,South,184,3.0,4.0,98,0.00,,,0.00,Wunderground v.1.15,2013-01-14 03:20:00,
2013-01-13 22:25:00,47.6,47.1,29.98,South,170,3.0,4.0,98,0.00,,,0.00,Wunderground v.1.15,2013-01-14 03:25:00,
2013-01-13 22:30:00,47.5,47.0,29.98,South,182,3.0,4.0,98,0.00,,,0.00,Wunderground v.1.15,2013-01-14 03:30:00,
2013-01-13 22:35:00,47.4,46.9,29.98,South,180,3.0,4.0,98,0.00,,,0.00,Wunderground v.1.15,2013-01-14 03:35:00,
2013-01-13 22:40:00,47.2,46.7,29.99,South,177,3.0,3.0,98,0.00,,,0.00,Wunderground v.1.15,2013-01-14 03:40:00,
2013-01-13 22:45:00,47.1,46.6,29.98,SSW,193,3.0,6.0,98,0.00,,,0.00,Wunderground v.1.15,2013-01-14 03:45:00,
2013-01-13 22:50:00,47.0,46.5,29.98,South,180,3.0,3.0,98,0.00,,,0.00,Wunderground v.1.15,2013-01-14 03:50:00,
2013-01-13 22:55:00,46.9,46.4,29.98,South,173,3.0,4.0,98,0.00,,,0.00,Wunderground v.1.15,2013-01-14 03:55:00,
2013-01-13 23:05:00,46.6,46.1,29.98,SSW,193,3.0,3.0,98,0.00,,,0.00,Wunderground v.1.15,2013-01-14 04:05:00,
2013-01-13 23:10:00,46.5,46.0,29.98,South,186,3.0,3.0,98,0.00,,,0.00,Wunderground v.1.15,2013-01-14 04:10:00,
2013-01-13 23:15:00,46.4,45.9,29.98,SSW,193,3.0,3.0,98,0.00,,,0.00,Wunderground v.1.15,2013-01-14 04:15:00,
2013-01-13 23:20:00,46.3,45.8,29.98,South,182,3.0,3.0,98,0.00,,,0.00,Wunderground v.1.15,2013-01-14 04:20:00,
2013-01-13 23:25:00,46.4,45.9,29.98,South,183,3.0,3.0,98,0.00,,,0.00,Wunderground v.1.15,2013-01-14 04:25:00,
2013-01-13 23:30:00,46.4,45.9,29.98,South,173,3.0,3.0,98,0.00,,,0.00,Wunderground v.1.15,2013-01-14 04:30:00,
2013-01-13 23:35:00,46.4,45.9,29.98,South,174,3.0,3.0,98,0.00,,,0.00,Wunderground v.1.15,2013-01-14 04:35:00,
2013-01-13 23:45:00,46.5,46.0,29.98,South,188,2.0,3.0,98,0.00,,,0.00,Wunderground v.1.15,2013-01-14 04:45:00,
2013-01-13 23:50:00,46.8,46.3,29.97,SSW,207,3.0,3.0,98,0.00,,,0.00,Wunderground v.1.15,2013-01-14 04:50:00,
2013-01-13 23:55:00,46.9,46.4,29.98,SSW,203,3.0,3.0,98,0.00,,,0.00,Wunderground v.1.15,2013-01-14 04:55:00,